sensor_id;sensor_type;location;lat;lon;timestamp;P1;durP1;ratioP1;P2;durP2;ratioP2
80193;SDS011;69515;42.072;21.504;2023-12-28T00:01:22;14.15;;;6.97;;
80193;SDS011;69515;42.072;21.504;2023-12-28T00:03:48;13.35;;;6.82;;
80193;SDS011;69515;42.072;21.504;2023-12-28T00:06:14;14.38;;;6.63;;
80193;SDS011;69515;42.072;21.504;2023-12-28T00:08:41;13.30;;;6.93;;
80193;SDS011;69515;42.072;21.504;2023-12-28T00:11:07;12.93;;;6.47;;
80193;SDS011;69515;42.072;21.504;2023-12-28T00:13:33;10.68;;;6.28;;
80193;SDS011;69515;42.072;21.504;2023-12-28T00:18:26;13.15;;;6.57;;
80193;SDS011;69515;42.072;21.504;2023-12-28T00:20:52;13.05;;;6.15;;
80193;SDS011;69515;42.072;21.504;2023-12-28T00:23:18;11.90;;;6.60;;
80193;SDS011;69515;42.072;21.504;2023-12-28T00:25:47;13.77;;;6.45;;
80193;SDS011;69515;42.072;21.504;2023-12-28T00:28:14;13.85;;;5.70;;
80193;SDS011;69515;42.072;21.504;2023-12-28T00:33:06;10.15;;;5.20;;
80193;SDS011;69515;42.072;21.504;2023-12-28T00:35:32;10.93;;;5.65;;
80193;SDS011;69515;42.072;21.504;2023-12-28T00:40:24;10.85;;;5.68;;
80193;SDS011;69515;42.072;21.504;2023-12-28T00:42:51;13.80;;;5.90;;
80193;SDS011;69515;42.072;21.504;2023-12-28T00:47:43;11.52;;;6.30;;
80193;SDS011;69515;42.072;21.504;2023-12-28T00:52:40;13.45;;;5.60;;
80193;SDS011;69515;42.072;21.504;2023-12-28T00:55:06;10.43;;;6.10;;
80193;SDS011;69515;42.072;21.504;2023-12-28T00:57:33;11.35;;;6.00;;
80193;SDS011;69515;42.072;21.504;2023-12-28T00:59:59;11.13;;;5.95;;
80193;SDS011;69515;42.072;21.504;2023-12-28T01:02:25;13.05;;;6.10;;
80193;SDS011;69515;42.072;21.504;2023-12-28T01:07:18;12.20;;;5.80;;
80193;SDS011;69515;42.072;21.504;2023-12-28T01:09:44;10.02;;;5.63;;
80193;SDS011;69515;42.072;21.504;2023-12-28T01:14:36;11.48;;;5.95;;
80193;SDS011;69515;42.072;21.504;2023-12-28T01:17:03;12.63;;;5.97;;
80193;SDS011;69515;42.072;21.504;2023-12-28T01:19:29;12.50;;;6.55;;
80193;SDS011;69515;42.072;21.504;2023-12-28T01:24:21;10.45;;;5.70;;
80193;SDS011;69515;42.072;21.504;2023-12-28T01:26:47;11.00;;;5.45;;
80193;SDS011;69515;42.072;21.504;2023-12-28T01:31:40;11.30;;;6.05;;
80193;SDS011;69515;42.072;21.504;2023-12-28T01:36:34;9.55;;;4.93;;
80193;SDS011;69515;42.072;21.504;2023-12-28T01:39:00;12.77;;;5.93;;
80193;SDS011;69515;42.072;21.504;2023-12-28T01:41:27;13.20;;;6.25;;
80193;SDS011;69515;42.072;21.504;2023-12-28T01:46:20;10.02;;;5.40;;
80193;SDS011;69515;42.072;21.504;2023-12-28T01:48:49;13.55;;;6.55;;
80193;SDS011;69515;42.072;21.504;2023-12-28T01:51:16;10.15;;;5.43;;
80193;SDS011;69515;42.072;21.504;2023-12-28T01:53:45;11.02;;;5.32;;
80193;SDS011;69515;42.072;21.504;2023-12-28T01:56:11;13.55;;;5.93;;
80193;SDS011;69515;42.072;21.504;2023-12-28T01:58:38;11.85;;;5.90;;
80193;SDS011;69515;42.072;21.504;2023-12-28T02:01:05;11.07;;;5.93;;
80193;SDS011;69515;42.072;21.504;2023-12-28T02:05:57;13.07;;;5.28;;
80193;SDS011;69515;42.072;21.504;2023-12-28T02:08:24;11.65;;;6.18;;
80193;SDS011;69515;42.072;21.504;2023-12-28T02:10:50;14.02;;;6.25;;
80193;SDS011;69515;42.072;21.504;2023-12-28T02:13:16;13.70;;;5.65;;
80193;SDS011;69515;42.072;21.504;2023-12-28T02:18:12;11.80;;;6.43;;
80193;SDS011;69515;42.072;21.504;2023-12-28T02:20:41;14.32;;;6.57;;
80193;SDS011;69515;42.072;21.504;2023-12-28T02:23:09;12.60;;;6.85;;
80193;SDS011;69515;42.072;21.504;2023-12-28T02:25:35;10.70;;;6.18;;
80193;SDS011;69515;42.072;21.504;2023-12-28T02:28:02;11.20;;;6.40;;
80193;SDS011;69515;42.072;21.504;2023-12-28T02:30:28;10.32;;;5.90;;
80193;SDS011;69515;42.072;21.504;2023-12-28T02:35:29;12.73;;;6.85;;
80193;SDS011;69515;42.072;21.504;2023-12-28T02:37:58;11.18;;;6.38;;
80193;SDS011;69515;42.072;21.504;2023-12-28T02:40:25;13.07;;;6.63;;
80193;SDS011;69515;42.072;21.504;2023-12-28T02:42:52;13.40;;;6.40;;
80193;SDS011;69515;42.072;21.504;2023-12-28T02:45:18;12.27;;;7.13;;
80193;SDS011;69515;42.072;21.504;2023-12-28T02:47:45;12.30;;;6.50;;
80193;SDS011;69515;42.072;21.504;2023-12-28T02:50:11;11.90;;;6.53;;
80193;SDS011;69515;42.072;21.504;2023-12-28T02:55:03;12.35;;;6.78;;
80193;SDS011;69515;42.072;21.504;2023-12-28T02:57:30;12.20;;;6.93;;
80193;SDS011;69515;42.072;21.504;2023-12-28T02:59:56;13.30;;;7.00;;
80193;SDS011;69515;42.072;21.504;2023-12-28T03:02:26;13.95;;;7.95;;
80193;SDS011;69515;42.072;21.504;2023-12-28T03:04:52;13.00;;;6.30;;
80193;SDS011;69515;42.072;21.504;2023-12-28T03:07:18;12.30;;;6.97;;
80193;SDS011;69515;42.072;21.504;2023-12-28T03:09:44;12.25;;;6.65;;
80193;SDS011;69515;42.072;21.504;2023-12-28T03:12:11;12.68;;;6.32;;
80193;SDS011;69515;42.072;21.504;2023-12-28T03:14:37;14.82;;;6.80;;
80193;SDS011;69515;42.072;21.504;2023-12-28T03:17:03;12.55;;;6.43;;
80193;SDS011;69515;42.072;21.504;2023-12-28T03:21:55;14.65;;;7.60;;
80193;SDS011;69515;42.072;21.504;2023-12-28T03:24:21;18.50;;;7.75;;
80193;SDS011;69515;42.072;21.504;2023-12-28T03:26:47;14.20;;;7.60;;
80193;SDS011;69515;42.072;21.504;2023-12-28T03:31:40;15.88;;;7.65;;
80193;SDS011;69515;42.072;21.504;2023-12-28T03:34:06;14.90;;;7.40;;
80193;SDS011;69515;42.072;21.504;2023-12-28T03:36:32;13.05;;;6.60;;
80193;SDS011;69515;42.072;21.504;2023-12-28T03:38:59;11.93;;;6.82;;
80193;SDS011;69515;42.072;21.504;2023-12-28T03:41:25;13.02;;;7.05;;
80193;SDS011;69515;42.072;21.504;2023-12-28T03:43:51;11.80;;;6.72;;
80193;SDS011;69515;42.072;21.504;2023-12-28T03:46:17;15.70;;;7.78;;
80193;SDS011;69515;42.072;21.504;2023-12-28T03:48:43;14.05;;;8.23;;
80193;SDS011;69515;42.072;21.504;2023-12-28T03:51:13;16.92;;;7.50;;
80193;SDS011;69515;42.072;21.504;2023-12-28T03:53:40;14.85;;;7.38;;
80193;SDS011;69515;42.072;21.504;2023-12-28T03:56:06;15.95;;;7.15;;
80193;SDS011;69515;42.072;21.504;2023-12-28T03:58:32;15.00;;;8.20;;
80193;SDS011;69515;42.072;21.504;2023-12-28T04:03:24;17.75;;;8.23;;
80193;SDS011;69515;42.072;21.504;2023-12-28T04:05:51;14.70;;;8.35;;
80193;SDS011;69515;42.072;21.504;2023-12-28T04:08:17;13.82;;;6.82;;
80193;SDS011;69515;42.072;21.504;2023-12-28T04:10:44;16.42;;;6.78;;
80193;SDS011;69515;42.072;21.504;2023-12-28T04:13:10;13.43;;;7.22;;
80193;SDS011;69515;42.072;21.504;2023-12-28T04:15:36;12.77;;;6.90;;
80193;SDS011;69515;42.072;21.504;2023-12-28T04:18:02;13.90;;;7.57;;
80193;SDS011;69515;42.072;21.504;2023-12-28T04:22:54;12.55;;;6.78;;
80193;SDS011;69515;42.072;21.504;2023-12-28T04:25:20;14.32;;;7.10;;
80193;SDS011;69515;42.072;21.504;2023-12-28T04:27:47;10.82;;;6.25;;
80193;SDS011;69515;42.072;21.504;2023-12-28T04:30:14;12.75;;;6.60;;
80193;SDS011;69515;42.072;21.504;2023-12-28T04:35:06;14.15;;;7.47;;
80193;SDS011;69515;42.072;21.504;2023-12-28T04:37:33;14.27;;;7.18;;
80193;SDS011;69515;42.072;21.504;2023-12-28T04:40:00;12.65;;;7.18;;
80193;SDS011;69515;42.072;21.504;2023-12-28T04:42:28;15.07;;;7.70;;
80193;SDS011;69515;42.072;21.504;2023-12-28T04:47:20;13.82;;;6.85;;
80193;SDS011;69515;42.072;21.504;2023-12-28T04:49:47;14.05;;;6.45;;
80193;SDS011;69515;42.072;21.504;2023-12-28T04:54:42;18.10;;;8.25;;
80193;SDS011;69515;42.072;21.504;2023-12-28T04:57:08;13.35;;;7.10;;
80193;SDS011;69515;42.072;21.504;2023-12-28T04:59:38;14.63;;;7.47;;
80193;SDS011;69515;42.072;21.504;2023-12-28T05:02:04;13.30;;;6.38;;
80193;SDS011;69515;42.072;21.504;2023-12-28T05:06:56;12.20;;;6.50;;
80193;SDS011;69515;42.072;21.504;2023-12-28T05:09:23;11.38;;;6.15;;
80193;SDS011;69515;42.072;21.504;2023-12-28T05:14:15;12.63;;;6.78;;
80193;SDS011;69515;42.072;21.504;2023-12-28T05:16:41;14.45;;;7.72;;
80193;SDS011;69515;42.072;21.504;2023-12-28T05:19:07;13.38;;;6.70;;
80193;SDS011;69515;42.072;21.504;2023-12-28T05:21:34;16.92;;;6.63;;
80193;SDS011;69515;42.072;21.504;2023-12-28T05:24:00;15.15;;;6.97;;
80193;SDS011;69515;42.072;21.504;2023-12-28T05:26:26;19.23;;;6.47;;
80193;SDS011;69515;42.072;21.504;2023-12-28T05:28:52;12.35;;;6.53;;
80193;SDS011;69515;42.072;21.504;2023-12-28T05:31:19;14.32;;;7.18;;
80193;SDS011;69515;42.072;21.504;2023-12-28T05:33:45;12.27;;;5.53;;
80193;SDS011;69515;42.072;21.504;2023-12-28T05:36:11;14.27;;;6.88;;
80193;SDS011;69515;42.072;21.504;2023-12-28T05:38:37;14.20;;;6.95;;
80193;SDS011;69515;42.072;21.504;2023-12-28T05:43:29;12.48;;;6.15;;
80193;SDS011;69515;42.072;21.504;2023-12-28T05:45:56;12.73;;;7.47;;
80193;SDS011;69515;42.072;21.504;2023-12-28T05:50:48;14.35;;;7.47;;
80193;SDS011;69515;42.072;21.504;2023-12-28T05:53:14;13.80;;;7.00;;
80193;SDS011;69515;42.072;21.504;2023-12-28T05:55:41;15.07;;;6.78;;
80193;SDS011;69515;42.072;21.504;2023-12-28T05:58:07;16.67;;;7.22;;
80193;SDS011;69515;42.072;21.504;2023-12-28T06:03:01;15.93;;;7.07;;
80193;SDS011;69515;42.072;21.504;2023-12-28T06:05:27;18.92;;;8.35;;
80193;SDS011;69515;42.072;21.504;2023-12-28T06:07:53;13.32;;;6.65;;
80193;SDS011;69515;42.072;21.504;2023-12-28T06:10:19;14.13;;;6.90;;
80193;SDS011;69515;42.072;21.504;2023-12-28T06:15:12;12.75;;;5.80;;
80193;SDS011;69515;42.072;21.504;2023-12-28T06:17:38;14.40;;;6.20;;
80193;SDS011;69515;42.072;21.504;2023-12-28T06:22:30;27.77;;;7.22;;
80193;SDS011;69515;42.072;21.504;2023-12-28T06:27:23;12.45;;;6.97;;
80193;SDS011;69515;42.072;21.504;2023-12-28T06:29:49;16.33;;;7.38;;
80193;SDS011;69515;42.072;21.504;2023-12-28T06:32:15;18.90;;;7.35;;
80193;SDS011;69515;42.072;21.504;2023-12-28T06:37:07;13.85;;;6.75;;
80193;SDS011;69515;42.072;21.504;2023-12-28T06:39:34;18.13;;;7.82;;
80193;SDS011;69515;42.072;21.504;2023-12-28T06:42:00;34.25;;;16.30;;
80193;SDS011;69515;42.072;21.504;2023-12-28T06:44:26;59.83;;;28.48;;
80193;SDS011;69515;42.072;21.504;2023-12-28T06:49:18;37.22;;;20.48;;
80193;SDS011;69515;42.072;21.504;2023-12-28T06:54:11;42.47;;;25.15;;
80193;SDS011;69515;42.072;21.504;2023-12-28T07:02:07;11.57;;;7.90;;
80193;SDS011;69515;42.072;21.504;2023-12-28T07:04:33;25.98;;;18.45;;
80193;SDS011;69515;42.072;21.504;2023-12-28T07:07:01;20.02;;;12.57;;
80193;SDS011;69515;42.072;21.504;2023-12-28T07:09:30;17.50;;;8.30;;
80193;SDS011;69515;42.072;21.504;2023-12-28T07:14:22;31.60;;;14.30;;
80193;SDS011;69515;42.072;21.504;2023-12-28T07:19:14;15.85;;;7.95;;
80193;SDS011;69515;42.072;21.504;2023-12-28T07:24:06;19.80;;;10.30;;
80193;SDS011;69515;42.072;21.504;2023-12-28T07:28:59;24.08;;;12.35;;
80193;SDS011;69515;42.072;21.504;2023-12-28T07:33:51;20.48;;;10.32;;
80193;SDS011;69515;42.072;21.504;2023-12-28T07:36:17;25.77;;;12.23;;
80193;SDS011;69515;42.072;21.504;2023-12-28T07:38:44;23.60;;;13.20;;
80193;SDS011;69515;42.072;21.504;2023-12-28T07:41:10;37.40;;;20.48;;
80193;SDS011;69515;42.072;21.504;2023-12-28T07:43:36;34.38;;;19.63;;
80193;SDS011;69515;42.072;21.504;2023-12-28T07:46:02;33.67;;;20.75;;
80193;SDS011;69515;42.072;21.504;2023-12-28T07:48:29;42.05;;;21.35;;
80193;SDS011;69515;42.072;21.504;2023-12-28T07:50:59;36.45;;;20.13;;
80193;SDS011;69515;42.072;21.504;2023-12-28T07:53:29;36.60;;;20.50;;
80193;SDS011;69515;42.072;21.504;2023-12-28T07:55:55;32.05;;;19.83;;
80193;SDS011;69515;42.072;21.504;2023-12-28T07:58:22;31.83;;;19.55;;
80193;SDS011;69515;42.072;21.504;2023-12-28T08:03:14;32.28;;;19.58;;
80193;SDS011;69515;42.072;21.504;2023-12-28T08:05:40;38.92;;;22.85;;
80193;SDS011;69515;42.072;21.504;2023-12-28T08:08:07;34.42;;;19.58;;
80193;SDS011;69515;42.072;21.504;2023-12-28T08:10:33;33.38;;;18.75;;
80193;SDS011;69515;42.072;21.504;2023-12-28T08:12:59;34.10;;;19.48;;
80193;SDS011;69515;42.072;21.504;2023-12-28T08:15:25;30.17;;;17.73;;
80193;SDS011;69515;42.072;21.504;2023-12-28T08:17:52;30.92;;;18.10;;
80193;SDS011;69515;42.072;21.504;2023-12-28T08:20:18;32.50;;;20.23;;
80193;SDS011;69515;42.072;21.504;2023-12-28T08:22:45;38.97;;;23.13;;
80193;SDS011;69515;42.072;21.504;2023-12-28T08:25:11;37.17;;;23.25;;
80193;SDS011;69515;42.072;21.504;2023-12-28T08:27:37;39.90;;;22.73;;
80193;SDS011;69515;42.072;21.504;2023-12-28T08:30:04;34.45;;;21.63;;
80193;SDS011;69515;42.072;21.504;2023-12-28T08:32:31;36.80;;;21.98;;
80193;SDS011;69515;42.072;21.504;2023-12-28T08:34:58;34.97;;;21.95;;
80193;SDS011;69515;42.072;21.504;2023-12-28T08:37:24;32.80;;;21.13;;
80193;SDS011;69515;42.072;21.504;2023-12-28T08:39:50;34.72;;;19.17;;
80193;SDS011;69515;42.072;21.504;2023-12-28T08:42:16;35.22;;;20.25;;
80193;SDS011;69515;42.072;21.504;2023-12-28T08:44:43;34.38;;;21.13;;
80193;SDS011;69515;42.072;21.504;2023-12-28T08:47:29;34.50;;;21.45;;
80193;SDS011;69515;42.072;21.504;2023-12-28T08:49:55;34.92;;;19.75;;
80193;SDS011;69515;42.072;21.504;2023-12-28T08:52:21;31.50;;;18.67;;
80193;SDS011;69515;42.072;21.504;2023-12-28T08:54:48;32.83;;;19.05;;
80193;SDS011;69515;42.072;21.504;2023-12-28T08:57:14;27.75;;;16.60;;
80193;SDS011;69515;42.072;21.504;2023-12-28T08:59:40;34.25;;;19.92;;
80193;SDS011;69515;42.072;21.504;2023-12-28T09:02:06;31.90;;;20.10;;
80193;SDS011;69515;42.072;21.504;2023-12-28T09:04:32;37.63;;;22.98;;
80193;SDS011;69515;42.072;21.504;2023-12-28T09:06:59;43.83;;;24.42;;
80193;SDS011;69515;42.072;21.504;2023-12-28T09:09:25;41.92;;;25.08;;
80193;SDS011;69515;42.072;21.504;2023-12-28T09:11:51;46.03;;;28.48;;
80193;SDS011;69515;42.072;21.504;2023-12-28T09:14:17;40.40;;;26.02;;
80193;SDS011;69515;42.072;21.504;2023-12-28T09:16:45;46.75;;;28.10;;
80193;SDS011;69515;42.072;21.504;2023-12-28T09:19:11;44.55;;;26.40;;
80193;SDS011;69515;42.072;21.504;2023-12-28T09:21:37;39.80;;;26.00;;
80193;SDS011;69515;42.072;21.504;2023-12-28T09:24:03;38.53;;;24.10;;
80193;SDS011;69515;42.072;21.504;2023-12-28T09:26:30;41.03;;;25.50;;
80193;SDS011;69515;42.072;21.504;2023-12-28T09:28:58;41.47;;;25.85;;
80193;SDS011;69515;42.072;21.504;2023-12-28T09:31:24;36.28;;;24.00;;
80193;SDS011;69515;42.072;21.504;2023-12-28T09:33:50;38.15;;;24.38;;
80193;SDS011;69515;42.072;21.504;2023-12-28T09:36:17;33.80;;;20.10;;
80193;SDS011;69515;42.072;21.504;2023-12-28T09:38:44;41.03;;;23.40;;
80193;SDS011;69515;42.072;21.504;2023-12-28T09:41:14;32.38;;;17.17;;
80193;SDS011;69515;42.072;21.504;2023-12-28T09:43:46;29.42;;;18.65;;
80193;SDS011;69515;42.072;21.504;2023-12-28T09:46:14;29.98;;;17.17;;
80193;SDS011;69515;42.072;21.504;2023-12-28T09:48:40;29.60;;;18.73;;
80193;SDS011;69515;42.072;21.504;2023-12-28T09:51:07;28.90;;;15.65;;
80193;SDS011;69515;42.072;21.504;2023-12-28T09:53:36;31.17;;;17.33;;
80193;SDS011;69515;42.072;21.504;2023-12-28T09:56:02;27.58;;;16.60;;
80193;SDS011;69515;42.072;21.504;2023-12-28T09:58:35;25.58;;;16.02;;
80193;SDS011;69515;42.072;21.504;2023-12-28T10:01:03;28.77;;;16.48;;
80193;SDS011;69515;42.072;21.504;2023-12-28T10:03:31;28.60;;;16.17;;
80193;SDS011;69515;42.072;21.504;2023-12-28T10:05:58;30.13;;;17.42;;
80193;SDS011;69515;42.072;21.504;2023-12-28T10:08:24;27.60;;;16.65;;
80193;SDS011;69515;42.072;21.504;2023-12-28T10:10:51;34.35;;;19.23;;
80193;SDS011;69515;42.072;21.504;2023-12-28T10:13:19;30.38;;;17.80;;
80193;SDS011;69515;42.072;21.504;2023-12-28T10:15:47;27.45;;;17.73;;
80193;SDS011;69515;42.072;21.504;2023-12-28T10:18:13;26.75;;;16.92;;
80193;SDS011;69515;42.072;21.504;2023-12-28T10:20:39;28.77;;;16.40;;
80193;SDS011;69515;42.072;21.504;2023-12-28T10:23:05;27.38;;;17.25;;
80193;SDS011;69515;42.072;21.504;2023-12-28T10:25:35;23.65;;;15.18;;
80193;SDS011;69515;42.072;21.504;2023-12-28T10:28:04;26.98;;;15.98;;
80193;SDS011;69515;42.072;21.504;2023-12-28T10:30:33;23.15;;;15.00;;
80193;SDS011;69515;42.072;21.504;2023-12-28T10:33:00;27.77;;;15.88;;
80193;SDS011;69515;42.072;21.504;2023-12-28T10:35:26;24.40;;;15.55;;
80193;SDS011;69515;42.072;21.504;2023-12-28T10:37:52;26.20;;;15.05;;
80193;SDS011;69515;42.072;21.504;2023-12-28T10:40:19;26.10;;;15.00;;
80193;SDS011;69515;42.072;21.504;2023-12-28T10:45:17;20.10;;;12.75;;
80193;SDS011;69515;42.072;21.504;2023-12-28T10:48:10;23.02;;;13.38;;
80193;SDS011;69515;42.072;21.504;2023-12-28T10:50:43;23.83;;;14.77;;
80193;SDS011;69515;42.072;21.504;2023-12-28T10:55:47;26.45;;;15.88;;
80193;SDS011;69515;42.072;21.504;2023-12-28T10:58:16;23.75;;;14.57;;
80193;SDS011;69515;42.072;21.504;2023-12-28T11:00:53;23.98;;;14.32;;
80193;SDS011;69515;42.072;21.504;2023-12-28T11:03:22;23.80;;;14.00;;
80193;SDS011;69515;42.072;21.504;2023-12-28T11:05:49;24.35;;;13.02;;
80193;SDS011;69515;42.072;21.504;2023-12-28T11:08:17;23.52;;;14.00;;
80193;SDS011;69515;42.072;21.504;2023-12-28T11:10:45;26.25;;;13.85;;
80193;SDS011;69515;42.072;21.504;2023-12-28T11:13:14;22.35;;;12.43;;
80193;SDS011;69515;42.072;21.504;2023-12-28T11:15:43;22.77;;;12.85;;
80193;SDS011;69515;42.072;21.504;2023-12-28T11:18:10;23.65;;;13.43;;
80193;SDS011;69515;42.072;21.504;2023-12-28T11:20:36;21.50;;;12.95;;
80193;SDS011;69515;42.072;21.504;2023-12-28T11:23:03;20.50;;;14.02;;
80193;SDS011;69515;42.072;21.504;2023-12-28T11:25:32;21.70;;;13.32;;
80193;SDS011;69515;42.072;21.504;2023-12-28T11:27:59;21.73;;;12.50;;
80193;SDS011;69515;42.072;21.504;2023-12-28T11:30:26;21.95;;;12.63;;
80193;SDS011;69515;42.072;21.504;2023-12-28T11:32:56;18.73;;;11.55;;
80193;SDS011;69515;42.072;21.504;2023-12-28T11:38:42;23.38;;;13.52;;
80193;SDS011;69515;42.072;21.504;2023-12-28T11:44:18;21.83;;;13.07;;
80193;SDS011;69515;42.072;21.504;2023-12-28T11:46:49;25.30;;;12.90;;
80193;SDS011;69515;42.072;21.504;2023-12-28T11:49:27;19.98;;;12.43;;
80193;SDS011;69515;42.072;21.504;2023-12-28T11:52:01;25.20;;;13.65;;
80193;SDS011;69515;42.072;21.504;2023-12-28T11:54:33;22.42;;;11.73;;
80193;SDS011;69515;42.072;21.504;2023-12-28T12:00:47;18.50;;;11.13;;
80193;SDS011;69515;42.072;21.504;2023-12-28T12:03:33;16.08;;;9.55;;
80193;SDS011;69515;42.072;21.504;2023-12-28T12:05:59;20.80;;;11.38;;
80193;SDS011;69515;42.072;21.504;2023-12-28T12:08:26;16.25;;;9.50;;
80193;SDS011;69515;42.072;21.504;2023-12-28T12:11:01;17.00;;;10.07;;
80193;SDS011;69515;42.072;21.504;2023-12-28T12:13:29;16.52;;;10.07;;
80193;SDS011;69515;42.072;21.504;2023-12-28T12:15:55;13.98;;;9.23;;
80193;SDS011;69515;42.072;21.504;2023-12-28T12:18:22;16.65;;;8.88;;
80193;SDS011;69515;42.072;21.504;2023-12-28T12:20:48;19.90;;;9.57;;
80193;SDS011;69515;42.072;21.504;2023-12-28T12:23:15;16.98;;;8.13;;
80193;SDS011;69515;42.072;21.504;2023-12-28T12:25:41;13.07;;;7.88;;
80193;SDS011;69515;42.072;21.504;2023-12-28T12:28:10;12.18;;;7.40;;
80193;SDS011;69515;42.072;21.504;2023-12-28T12:30:40;14.23;;;8.02;;
80193;SDS011;69515;42.072;21.504;2023-12-28T12:33:06;15.52;;;8.52;;
80193;SDS011;69515;42.072;21.504;2023-12-28T12:35:34;16.92;;;9.68;;
80193;SDS011;69515;42.072;21.504;2023-12-28T12:38:00;16.42;;;9.65;;
80193;SDS011;69515;42.072;21.504;2023-12-28T12:40:28;13.40;;;8.02;;
80193;SDS011;69515;42.072;21.504;2023-12-28T12:42:54;20.15;;;9.15;;
80193;SDS011;69515;42.072;21.504;2023-12-28T12:45:21;16.25;;;8.68;;
80193;SDS011;69515;42.072;21.504;2023-12-28T12:47:48;17.13;;;8.70;;
80193;SDS011;69515;42.072;21.504;2023-12-28T12:50:15;16.85;;;8.45;;
80193;SDS011;69515;42.072;21.504;2023-12-28T12:52:42;18.70;;;8.70;;
80193;SDS011;69515;42.072;21.504;2023-12-28T12:55:11;15.85;;;8.88;;
80193;SDS011;69515;42.072;21.504;2023-12-28T12:57:38;21.08;;;9.52;;
80193;SDS011;69515;42.072;21.504;2023-12-28T13:00:05;17.60;;;10.10;;
80193;SDS011;69515;42.072;21.504;2023-12-28T13:02:34;13.77;;;8.30;;
80193;SDS011;69515;42.072;21.504;2023-12-28T13:05:04;14.57;;;8.43;;
80193;SDS011;69515;42.072;21.504;2023-12-28T13:07:31;14.27;;;8.85;;
80193;SDS011;69515;42.072;21.504;2023-12-28T13:09:58;16.67;;;9.27;;
80193;SDS011;69515;42.072;21.504;2023-12-28T13:12:24;18.90;;;9.63;;
80193;SDS011;69515;42.072;21.504;2023-12-28T13:14:50;19.13;;;11.88;;
80193;SDS011;69515;42.072;21.504;2023-12-28T13:17:16;24.83;;;11.48;;
80193;SDS011;69515;42.072;21.504;2023-12-28T13:19:42;19.67;;;11.98;;
80193;SDS011;69515;42.072;21.504;2023-12-28T13:22:09;20.15;;;11.98;;
80193;SDS011;69515;42.072;21.504;2023-12-28T13:24:35;21.65;;;13.15;;
80193;SDS011;69515;42.072;21.504;2023-12-28T13:27:05;22.70;;;12.63;;
80193;SDS011;69515;42.072;21.504;2023-12-28T13:29:31;25.73;;;14.55;;
80193;SDS011;69515;42.072;21.504;2023-12-28T13:31:58;25.40;;;14.70;;
80193;SDS011;69515;42.072;21.504;2023-12-28T13:34:25;29.15;;;16.13;;
80193;SDS011;69515;42.072;21.504;2023-12-28T13:36:56;27.63;;;17.88;;
80193;SDS011;69515;42.072;21.504;2023-12-28T13:39:27;29.50;;;15.77;;
80193;SDS011;69515;42.072;21.504;2023-12-28T13:41:57;30.10;;;18.45;;
80193;SDS011;69515;42.072;21.504;2023-12-28T13:44:23;36.83;;;18.25;;
80193;SDS011;69515;42.072;21.504;2023-12-28T13:46:50;32.40;;;18.35;;
80193;SDS011;69515;42.072;21.504;2023-12-28T13:49:18;31.77;;;19.20;;
80193;SDS011;69515;42.072;21.504;2023-12-28T13:51:45;39.58;;;22.40;;
80193;SDS011;69515;42.072;21.504;2023-12-28T13:54:31;35.38;;;21.77;;
80193;SDS011;69515;42.072;21.504;2023-12-28T13:56:57;39.00;;;22.80;;
80193;SDS011;69515;42.072;21.504;2023-12-28T13:59:24;36.58;;;22.33;;
80193;SDS011;69515;42.072;21.504;2023-12-28T14:01:51;37.22;;;23.88;;
80193;SDS011;69515;42.072;21.504;2023-12-28T14:04:17;37.25;;;24.10;;
80193;SDS011;69515;42.072;21.504;2023-12-28T14:06:44;51.35;;;29.50;;
80193;SDS011;69515;42.072;21.504;2023-12-28T14:09:31;60.00;;;35.03;;
80193;SDS011;69515;42.072;21.504;2023-12-28T14:11:58;56.60;;;33.50;;
80193;SDS011;69515;42.072;21.504;2023-12-28T14:14:25;35.75;;;22.85;;
80193;SDS011;69515;42.072;21.504;2023-12-28T14:16:51;43.03;;;25.83;;
80193;SDS011;69515;42.072;21.504;2023-12-28T14:19:17;37.47;;;22.63;;
80193;SDS011;69515;42.072;21.504;2023-12-28T14:21:43;38.70;;;22.88;;
80193;SDS011;69515;42.072;21.504;2023-12-28T14:24:10;35.35;;;20.60;;
80193;SDS011;69515;42.072;21.504;2023-12-28T14:26:40;31.27;;;19.42;;
80193;SDS011;69515;42.072;21.504;2023-12-28T14:29:09;32.08;;;17.83;;
80193;SDS011;69515;42.072;21.504;2023-12-28T14:31:36;28.90;;;16.35;;
80193;SDS011;69515;42.072;21.504;2023-12-28T14:34:03;28.50;;;16.65;;
80193;SDS011;69515;42.072;21.504;2023-12-28T14:36:34;26.73;;;16.38;;
80193;SDS011;69515;42.072;21.504;2023-12-28T14:39:01;26.35;;;15.70;;
80193;SDS011;69515;42.072;21.504;2023-12-28T14:41:29;26.05;;;15.70;;
80193;SDS011;69515;42.072;21.504;2023-12-28T14:43:55;28.70;;;16.70;;
80193;SDS011;69515;42.072;21.504;2023-12-28T14:46:24;30.60;;;17.45;;
80193;SDS011;69515;42.072;21.504;2023-12-28T14:48:51;26.08;;;15.20;;
80193;SDS011;69515;42.072;21.504;2023-12-28T14:51:18;28.67;;;15.07;;
80193;SDS011;69515;42.072;21.504;2023-12-28T14:54:05;22.92;;;13.52;;
80193;SDS011;69515;42.072;21.504;2023-12-28T14:56:31;27.45;;;15.25;;
80193;SDS011;69515;42.072;21.504;2023-12-28T14:58:57;27.23;;;15.25;;
80193;SDS011;69515;42.072;21.504;2023-12-28T15:01:23;26.55;;;14.98;;
80193;SDS011;69515;42.072;21.504;2023-12-28T15:03:50;23.52;;;13.70;;
80193;SDS011;69515;42.072;21.504;2023-12-28T15:06:16;27.40;;;14.90;;
80193;SDS011;69515;42.072;21.504;2023-12-28T15:08:42;22.70;;;13.43;;
80193;SDS011;69515;42.072;21.504;2023-12-28T15:11:09;23.80;;;14.52;;
80193;SDS011;69515;42.072;21.504;2023-12-28T15:13:36;21.27;;;12.57;;
80193;SDS011;69515;42.072;21.504;2023-12-28T15:16:17;25.58;;;14.48;;
80193;SDS011;69515;42.072;21.504;2023-12-28T15:21:42;21.60;;;12.07;;
80193;SDS011;69515;42.072;21.504;2023-12-28T15:24:08;21.48;;;12.55;;
80193;SDS011;69515;42.072;21.504;2023-12-28T15:26:38;18.60;;;9.80;;
80193;SDS011;69515;42.072;21.504;2023-12-28T15:29:04;21.63;;;11.27;;
80193;SDS011;69515;42.072;21.504;2023-12-28T15:31:31;18.13;;;11.13;;
80193;SDS011;69515;42.072;21.504;2023-12-28T15:33:57;22.45;;;13.20;;
80193;SDS011;69515;42.072;21.504;2023-12-28T15:36:24;20.85;;;11.60;;
80193;SDS011;69515;42.072;21.504;2023-12-28T15:38:50;20.90;;;10.65;;
80193;SDS011;69515;42.072;21.504;2023-12-28T15:41:16;20.30;;;12.40;;
80193;SDS011;69515;42.072;21.504;2023-12-28T15:43:42;17.63;;;11.13;;
80193;SDS011;69515;42.072;21.504;2023-12-28T15:46:08;16.48;;;8.40;;
80193;SDS011;69515;42.072;21.504;2023-12-28T15:48:35;16.40;;;9.63;;
80193;SDS011;69515;42.072;21.504;2023-12-28T15:51:01;14.20;;;8.73;;
80193;SDS011;69515;42.072;21.504;2023-12-28T15:53:27;16.63;;;9.30;;
80193;SDS011;69515;42.072;21.504;2023-12-28T15:55:53;14.68;;;7.75;;
80193;SDS011;69515;42.072;21.504;2023-12-28T15:58:19;14.80;;;7.35;;
80193;SDS011;69515;42.072;21.504;2023-12-28T16:00:48;13.00;;;7.50;;
80193;SDS011;69515;42.072;21.504;2023-12-28T16:03:15;12.82;;;6.63;;
80193;SDS011;69515;42.072;21.504;2023-12-28T16:05:41;14.07;;;6.50;;
80193;SDS011;69515;42.072;21.504;2023-12-28T16:08:07;12.88;;;6.78;;
80193;SDS011;69515;42.072;21.504;2023-12-28T16:10:34;9.80;;;5.78;;
80193;SDS011;69515;42.072;21.504;2023-12-28T16:13:00;11.40;;;6.80;;
80193;SDS011;69515;42.072;21.504;2023-12-28T16:15:26;13.13;;;7.28;;